Time;durP1;ratioP1;P1;durP2;ratioP2;P2;SDS_P1;SDS_P2;PMS_P1;PMS_P2;Temp;Humidity;BMP_temperature;BMP_pressure;BME280_temperature;BME280_humidity;BME280_pressure;Samples;Min_cycle;Max_cycle;Signal;HPM_P1;HPM_P2
2023/05/06 00:00:27;;;;;;;9.07;6.25;;;;;;;;;;4957022;28;20116;-79
2023/05/06 00:02:52;;;;;;;7.53;5.72;;;;;;;;;;4943303;28;20054;-79
2023/05/06 00:05:18;;;;;;;7.03;5.63;;;;;;;;;;4957850;28;20050;-79
2023/05/06 00:07:45;;;;;;;5.00;4.40;;;;;;;;;;4961999;28;20042;-78
2023/05/06 00:10:11;;;;;;;8.60;6.25;;;;;;;;;;4952286;28;20031;-79
2023/05/06 00:12:36;;;;;;;9.68;6.78;;;;;;;;;;4936719;28;20689;-79
2023/05/06 00:15:02;;;;;;;8.50;6.75;;;;;;;;;;4958768;28;20499;-78
2023/05/06 00:17:27;;;;;;;8.57;7.15;;;;;;;;;;4949218;28;20047;-78
2023/05/06 00:19:55;;;;;;;9.13;6.85;;;;;;;;;;4959495;28;20507;-78
2023/05/06 00:22:20;;;;;;;8.38;6.30;;;;;;;;;;4960355;28;20724;-80
2023/05/06 00:24:46;;;;;;;9.40;6.35;;;;;;;;;;4947676;28;20047;-78
2023/05/06 00:27:11;;;;;;;7.63;5.90;;;;;;;;;;4953260;28;20042;-79
2023/05/06 00:29:37;;;;;;;9.80;6.50;;;;;;;;;;4966167;28;20042;-79
2023/05/06 00:32:02;;;;;;;8.38;5.70;;;;;;;;;;4955115;28;20042;-79
2023/05/06 00:34:28;;;;;;;8.43;6.28;;;;;;;;;;4953124;28;20043;-79
2023/05/06 00:36:53;;;;;;;10.30;6.78;;;;;;;;;;4957113;28;20481;-79
2023/05/06 00:39:18;;;;;;;7.80;6.15;;;;;;;;;;4941323;28;20043;-79
2023/05/06 00:41:44;;;;;;;9.27;6.22;;;;;;;;;;4958590;28;20049;-79
2023/05/06 00:44:09;;;;;;;3.60;2.60;;;;;;;;;;4961567;28;20045;-79
2023/05/06 00:46:35;;;;;;;4.82;3.75;;;;;;;;;;4959691;28;20046;-80
2023/05/06 00:49:01;;;;;;;8.38;5.85;;;;;;;;;;4941929;28;20091;-79
2023/05/06 00:51:26;;;;;;;7.53;5.55;;;;;;;;;;4956603;28;20173;-79
2023/05/06 00:53:52;;;;;;;9.63;6.13;;;;;;;;;;4945654;28;20051;-80
2023/05/06 00:56:17;;;;;;;7.35;5.85;;;;;;;;;;4963923;28;20042;-79
2023/05/06 00:58:44;;;;;;;8.45;6.70;;;;;;;;;;4966189;28;20034;-79
2023/05/06 01:01:09;;;;;;;8.82;4.75;;;;;;;;;;4963283;28;20038;-78
2023/05/06 01:03:35;;;;;;;7.47;6.13;;;;;;;;;;4955774;28;20511;-78
2023/05/06 01:06:22;;;;;;;7.65;5.78;;;;;;;;;;4964204;28;20035;-79
2023/05/06 01:08:59;;;;;;;7.57;5.80;;;;;;;;;;4927428;28;20043;-78
2023/05/06 01:11:45;;;;;;;6.60;4.80;;;;;;;;;;4961432;28;20035;-79
2023/05/06 01:14:22;;;;;;;7.25;5.30;;;;;;;;;;4963390;28;20039;-78
2023/05/06 01:16:52;;;;;;;9.38;5.32;;;;;;;;;;4937214;28;20046;-79
2023/05/06 01:19:30;;;;;;;6.40;5.13;;;;;;;;;;4966547;28;20035;-79
2023/05/06 01:22:00;;;;;;;2.28;2.08;;;;;;;;;;4962295;28;20093;-79
2023/05/06 01:24:34;;;;;;;3.53;3.17;;;;;;;;;;4962411;28;20038;-78
2023/05/06 01:27:00;;;;;;;4.70;3.65;;;;;;;;;;4969044;28;20451;-79
2023/05/06 01:29:26;;;;;;;4.28;3.40;;;;;;;;;;4943339;28;20054;-79
2023/05/06 01:31:55;;;;;;;3.33;3.00;;;;;;;;;;4957051;28;20035;-78
2023/05/06 01:34:31;;;;;;;3.90;3.20;;;;;;;;;;4963937;28;20034;-80
2023/05/06 01:37:11;;;;;;;4.03;3.00;;;;;;;;;;4958844;28;20034;-78
2023/05/06 01:39:40;;;;;;;5.03;3.28;;;;;;;;;;4932782;28;20035;-79
2023/05/06 01:42:08;;;;;;;1.90;1.73;;;;;;;;;;4935614;28;20042;-79
2023/05/06 01:44:36;;;;;;;4.82;4.18;;;;;;;;;;4956261;28;20042;-79
2023/05/06 01:47:01;;;;;;;2.70;2.42;;;;;;;;;;4958144;28;20043;-78
2023/05/06 01:49:28;;;;;;;4.65;4.03;;;;;;;;;;4949385;28;20568;-79
2023/05/06 01:51:54;;;;;;;2.25;2.05;;;;;;;;;;4947402;28;20035;-79
2023/05/06 01:54:19;;;;;;;5.40;4.15;;;;;;;;;;4937808;28;20042;-80
2023/05/06 01:56:45;;;;;;;4.43;3.90;;;;;;;;;;4946678;28;20038;-79
2023/05/06 01:59:11;;;;;;;6.75;4.15;;;;;;;;;;4965229;28;20043;-79
2023/05/06 02:01:36;;;;;;;12.13;4.30;;;;;;;;;;4960604;28;20101;-79
2023/05/06 02:04:02;;;;;;;4.53;3.58;;;;;;;;;;4944640;28;20392;-79
2023/05/06 02:06:27;;;;;;;5.75;4.30;;;;;;;;;;4962883;28;20047;-78
2023/05/06 02:08:52;;;;;;;4.93;4.32;;;;;;;;;;4953163;28;20103;-78
2023/05/06 02:11:18;;;;;;;6.38;4.40;;;;;;;;;;4954053;28;20054;-79
2023/05/06 02:13:43;;;;;;;5.95;4.90;;;;;;;;;;4957848;28;20038;-79
2023/05/06 02:16:09;;;;;;;8.25;4.85;;;;;;;;;;4959756;28;20043;-78
2023/05/06 02:18:35;;;;;;;5.68;4.60;;;;;;;;;;4962868;28;20081;-78
2023/05/06 02:21:00;;;;;;;6.10;4.82;;;;;;;;;;4953574;28;20027;-78
2023/05/06 02:23:26;;;;;;;6.15;4.70;;;;;;;;;;4959670;28;20102;-79
2023/05/06 02:25:52;;;;;;;5.30;4.72;;;;;;;;;;4963219;28;20038;-79
2023/05/06 02:28:17;;;;;;;7.35;5.07;;;;;;;;;;4959199;28;20037;-78
2023/05/06 02:30:43;;;;;;;6.30;5.53;;;;;;;;;;4964104;28;20062;-78
2023/05/06 02:33:08;;;;;;;3.28;2.22;;;;;;;;;;4944327;28;20038;-78
2023/05/06 02:35:33;;;;;;;25.88;6.72;;;;;;;;;;4949590;28;20050;-79
2023/05/06 02:37:59;;;;;;;90.38;11.45;;;;;;;;;;4943778;28;20065;-77
2023/05/06 02:40:25;;;;;;;5.65;3.72;;;;;;;;;;4957445;28;21227;-78
2023/05/06 02:42:52;;;;;;;4.70;3.67;;;;;;;;;;4949118;28;20054;-78
2023/05/06 02:45:17;;;;;;;1.98;1.80;;;;;;;;;;4960006;28;20050;-79
2023/05/06 02:47:43;;;;;;;8.57;5.85;;;;;;;;;;4963155;28;20053;-79
2023/05/06 02:50:08;;;;;;;2.63;2.20;;;;;;;;;;4945673;28;20122;-79
2023/05/06 02:52:34;;;;;;;2.30;2.10;;;;;;;;;;4950911;28;20042;-78
2023/05/06 02:55:00;;;;;;;6.57;4.65;;;;;;;;;;4958321;28;20058;-78
2023/05/06 02:57:26;;;;;;;5.82;3.97;;;;;;;;;;4960528;28;20100;-79
2023/05/06 02:59:51;;;;;;;7.45;5.47;;;;;;;;;;4957301;28;20501;-78
2023/05/06 03:02:17;;;;;;;4.78;4.18;;;;;;;;;;4956809;28;20062;-79
2023/05/06 03:04:42;;;;;;;2.20;2.00;;;;;;;;;;4952542;28;20046;-79
2023/05/06 03:07:08;;;;;;;7.07;5.75;;;;;;;;;;4944794;28;20078;-78
2023/05/06 03:09:33;;;;;;;3.90;2.92;;;;;;;;;;4958657;28;20043;-78
2023/05/06 03:11:58;;;;;;;6.25;4.43;;;;;;;;;;4959249;28;20633;-79
2023/05/06 03:14:24;;;;;;;3.60;3.10;;;;;;;;;;4946990;28;20062;-79
2023/05/06 03:16:50;;;;;;;5.85;4.70;;;;;;;;;;4961655;28;20053;-78
2023/05/06 03:19:15;;;;;;;7.63;6.07;;;;;;;;;;4947759;28;20043;-78
2023/05/06 03:21:41;;;;;;;3.05;2.75;;;;;;;;;;4931112;28;20039;-78
2023/05/06 03:24:06;;;;;;;2.80;2.35;;;;;;;;;;4962229;28;20435;-80
2023/05/06 03:26:31;;;;;;;5.95;4.70;;;;;;;;;;4963100;28;20121;-80
2023/05/06 03:28:57;;;;;;;1.85;1.58;;;;;;;;;;4964194;28;20073;-80
2023/05/06 03:31:22;;;;;;;5.40;4.35;;;;;;;;;;4966124;28;20068;-79
2023/05/06 03:33:48;;;;;;;5.88;4.72;;;;;;;;;;4935510;28;20087;-79
2023/05/06 03:36:13;;;;;;;1.77;1.67;;;;;;;;;;4951143;28;20271;-79
2023/05/06 03:38:40;;;;;;;6.32;5.18;;;;;;;;;;4963627;28;20666;-78
2023/05/06 03:41:05;;;;;;;2.95;2.42;;;;;;;;;;4960590;28;20520;-77
2023/05/06 03:43:30;;;;;;;4.40;3.15;;;;;;;;;;4952087;28;20066;-78
2023/05/06 03:45:56;;;;;;;3.80;2.78;;;;;;;;;;4949147;28;20039;-79
2023/05/06 03:48:22;;;;;;;1.88;1.63;;;;;;;;;;4949941;28;20699;-79
2023/05/06 03:50:48;;;;;;;6.72;5.28;;;;;;;;;;4943827;28;20069;-78
2023/05/06 03:53:13;;;;;;;4.90;4.05;;;;;;;;;;4958389;28;20030;-78
2023/05/06 03:55:39;;;;;;;5.03;3.22;;;;;;;;;;4940369;28;20042;-78
2023/05/06 03:58:04;;;;;;;5.88;4.63;;;;;;;;;;4938641;28;20047;-79
2023/05/06 04:00:30;;;;;;;3.90;3.17;;;;;;;;;;4952731;28;20507;-78
2023/05/06 04:02:56;;;;;;;5.03;4.53;;;;;;;;;;4939461;28;20098;-78
2023/05/06 04:05:21;;;;;;;7.40;4.63;;;;;;;;;;4947129;28;20039;-78
2023/05/06 04:07:47;;;;;;;5.97;4.05;;;;;;;;;;4960797;28;20039;-79
2023/05/06 04:10:12;;;;;;;3.97;3.40;;;;;;;;;;4958477;28;20280;-78
2023/05/06 04:12:38;;;;;;;5.07;3.90;;;;;;;;;;4956573;28;20062;-77
2023/05/06 04:15:03;;;;;;;5.18;3.65;;;;;;;;;;4956672;28;20131;-78
2023/05/06 04:17:30;;;;;;;4.88;3.58;;;;;;;;;;4949426;28;20042;-78
2023/05/06 04:19:56;;;;;;;2.00;1.70;;;;;;;;;;4962311;28;20633;-78
2023/05/06 04:22:21;;;;;;;3.85;3.25;;;;;;;;;;4961873;28;20039;-78
2023/05/06 04:24:47;;;;;;;4.50;3.65;;;;;;;;;;4961860;28;20235;-77
2023/05/06 04:27:12;;;;;;;4.07;3.20;;;;;;;;;;4959685;28;20717;-79
2023/05/06 04:29:37;;;;;;;4.15;3.38;;;;;;;;;;4946085;28;20038;-78
2023/05/06 04:32:04;;;;;;;1.90;1.65;;;;;;;;;;4953161;28;20046;-78
2023/05/06 04:34:30;;;;;;;3.67;3.10;;;;;;;;;;4954508;28;20569;-78
2023/05/06 04:36:57;;;;;;;4.18;3.60;;;;;;;;;;4960177;28;20046;-78
2023/05/06 04:39:23;;;;;;;3.47;3.10;;;;;;;;;;4942851;28;20085;-79
2023/05/06 04:41:48;;;;;;;4.65;3.42;;;;;;;;;;4959601;28;20128;-79
2023/05/06 04:44:13;;;;;;;5.00;3.50;;;;;;;;;;4953559;28;20043;-78
2023/05/06 04:46:39;;;;;;;4.65;3.28;;;;;;;;;;4955194;28;20118;-78
2023/05/06 04:49:05;;;;;;;4.22;3.42;;;;;;;;;;4947726;28;20531;-78
2023/05/06 04:51:30;;;;;;;1.77;1.67;;;;;;;;;;4957444;28;20505;-78
2023/05/06 04:53:56;;;;;;;3.83;3.13;;;;;;;;;;4957545;28;20042;-78
2023/05/06 04:56:21;;;;;;;2.70;2.13;;;;;;;;;;4949747;28;20042;-78
2023/05/06 04:58:47;;;;;;;4.13;2.75;;;;;;;;;;4962602;28;20042;-78
2023/05/06 05:01:12;;;;;;;3.35;3.00;;;;;;;;;;4941950;28;22234;-78
2023/05/06 05:03:37;;;;;;;2.05;1.65;;;;;;;;;;4948188;28;20047;-77
2023/05/06 05:06:03;;;;;;;5.78;2.08;;;;;;;;;;4953704;28;20042;-78
2023/05/06 05:08:28;;;;;;;2.85;2.42;;;;;;;;;;4955119;28;20046;-77
2023/05/06 05:10:54;;;;;;;3.47;2.78;;;;;;;;;;4932281;28;20054;-78
2023/05/06 05:13:20;;;;;;;3.05;2.20;;;;;;;;;;4944428;28;20068;-78
2023/05/06 05:15:45;;;;;;;2.35;1.70;;;;;;;;;;4952345;28;20121;-77
2023/05/06 05:18:11;;;;;;;2.13;1.77;;;;;;;;;;4937766;28;20121;-79
2023/05/06 05:20:36;;;;;;;3.30;2.47;;;;;;;;;;4959688;28;20053;-78
2023/05/06 05:23:01;;;;;;;2.38;2.00;;;;;;;;;;4946781;28;20042;-77
2023/05/06 05:25:27;;;;;;;3.45;2.75;;;;;;;;;;4942985;28;20503;-78
2023/05/06 05:27:52;;;;;;;2.88;2.40;;;;;;;;;;4942083;28;20046;-78
2023/05/06 05:30:18;;;;;;;1.98;1.70;;;;;;;;;;4950652;28;20042;-79
2023/05/06 05:32:43;;;;;;;2.75;2.40;;;;;;;;;;4955111;28;20050;-79
2023/05/06 05:35:09;;;;;;;3.55;2.78;;;;;;;;;;4953342;28;20034;-79
2023/05/06 05:37:35;;;;;;;1.77;1.30;;;;;;;;;;4951691;28;20298;-79
2023/05/06 05:40:00;;;;;;;3.88;2.90;;;;;;;;;;4944213;28;20131;-80
2023/05/06 05:42:26;;;;;;;3.63;2.70;;;;;;;;;;4944315;28;20051;-79
2023/05/06 05:44:52;;;;;;;1.83;1.73;;;;;;;;;;4937217;28;20034;-80
2023/05/06 05:47:17;;;;;;;4.80;3.50;;;;;;;;;;4952045;28;20110;-79
2023/05/06 05:49:43;;;;;;;4.55;2.78;;;;;;;;;;4937949;28;20034;-79
2023/05/06 05:52:09;;;;;;;0.93;0.93;;;;;;;;;;4931738;28;20423;-79
2023/05/06 05:54:34;;;;;;;3.33;2.58;;;;;;;;;;4936304;28;20039;-78
2023/05/06 05:57:00;;;;;;;4.25;3.22;;;;;;;;;;4944613;28;20042;-80
2023/05/06 05:59:26;;;;;;;2.80;2.30;;;;;;;;;;4922004;28;20050;-79
2023/05/06 06:01:51;;;;;;;4.03;3.20;;;;;;;;;;4921049;28;20047;-78
2023/05/06 06:04:16;;;;;;;2.15;1.95;;;;;;;;;;4944356;28;20042;-78
2023/05/06 06:06:42;;;;;;;3.15;2.35;;;;;;;;;;4945878;28;20042;-78
2023/05/06 06:09:08;;;;;;;9.43;4.90;;;;;;;;;;4936011;28;20043;-78
2023/05/06 06:11:33;;;;;;;1.45;1.35;;;;;;;;;;4944073;28;20105;-79
2023/05/06 06:13:59;;;;;;;4.28;3.28;;;;;;;;;;4949680;28;20035;-81
2023/05/06 06:16:24;;;;;;;4.75;2.65;;;;;;;;;;4953853;28;20336;-80
2023/05/06 06:18:49;;;;;;;5.72;4.60;;;;;;;;;;4947914;28;20049;-81
2023/05/06 06:21:15;;;;;;;5.97;4.00;;;;;;;;;;4950856;28;20800;-79
2023/05/06 06:23:40;;;;;;;3.08;2.50;;;;;;;;;;4939015;28;20051;-79
2023/05/06 06:26:06;;;;;;;1.83;1.55;;;;;;;;;;4931415;28;20046;-80
2023/05/06 06:28:31;;;;;;;5.40;3.72;;;;;;;;;;4944286;28;20058;-77
2023/05/06 06:30:57;;;;;;;4.20;3.47;;;;;;;;;;4949296;28;20792;-81
2023/05/06 06:33:22;;;;;;;5.00;3.08;;;;;;;;;;4955837;28;20542;-77
2023/05/06 06:35:48;;;;;;;2.75;2.50;;;;;;;;;;4932108;28;20089;-79
2023/05/06 06:38:13;;;;;;;4.85;3.55;;;;;;;;;;4948204;28;20046;-77
2023/05/06 06:40:38;;;;;;;3.50;2.97;;;;;;;;;;4946191;28;20252;-78
2023/05/06 06:43:04;;;;;;;4.75;3.63;;;;;;;;;;4955916;28;20045;-78
2023/05/06 06:45:29;;;;;;;3.83;2.92;;;;;;;;;;4953482;28;20038;-78
2023/05/06 06:47:55;;;;;;;2.80;2.40;;;;;;;;;;4950251;28;20432;-77
2023/05/06 06:50:20;;;;;;;3.83;2.17;;;;;;;;;;4945060;28;20066;-78
2023/05/06 06:52:45;;;;;;;4.78;3.22;;;;;;;;;;4945823;28;20068;-77
2023/05/06 06:55:11;;;;;;;3.20;2.60;;;;;;;;;;4956788;28;20046;-78
2023/05/06 06:57:39;;;;;;;1.88;1.63;;;;;;;;;;4942529;28;20449;-77
2023/05/06 07:00:05;;;;;;;3.47;2.80;;;;;;;;;;4935572;28;20045;-77
2023/05/06 07:02:30;;;;;;;1.15;0.82;;;;;;;;;;4952895;28;20046;-78
2023/05/06 07:04:56;;;;;;;1.90;1.15;;;;;;;;;;4941696;28;20047;-77
2023/05/06 07:07:21;;;;;;;2.47;2.15;;;;;;;;;;4928128;28;20075;-77
2023/05/06 07:09:46;;;;;;;2.05;0.90;;;;;;;;;;4938262;28;20573;-77
2023/05/06 07:12:12;;;;;;;4.22;3.55;;;;;;;;;;4945853;28;20512;-79
2023/05/06 07:14:37;;;;;;;4.32;2.90;;;;;;;;;;4951129;28;20436;-77
2023/05/06 07:17:03;;;;;;;1.30;1.20;;;;;;;;;;4952715;28;20047;-77
2023/05/06 07:19:30;;;;;;;2.70;2.10;;;;;;;;;;4931289;28;20042;-77
2023/05/06 07:21:55;;;;;;;3.28;2.67;;;;;;;;;;4946667;28;20046;-77
2023/05/06 07:24:21;;;;;;;1.33;1.20;;;;;;;;;;4953698;28;20161;-78
2023/05/06 07:26:46;;;;;;;4.03;2.38;;;;;;;;;;4953864;28;20416;-78
2023/05/06 07:29:12;;;;;;;5.18;3.35;;;;;;;;;;4953981;28;20037;-77
2023/05/06 07:31:37;;;;;;;2.28;1.83;;;;;;;;;;4955981;28;20050;-77
2023/05/06 07:34:03;;;;;;;2.88;2.13;;;;;;;;;;4941466;28;20046;-77
2023/05/06 07:36:29;;;;;;;1.58;1.27;;;;;;;;;;4946376;28;20118;-77
2023/05/06 07:38:55;;;;;;;5.05;3.42;;;;;;;;;;4958465;28;20123;-77
2023/05/06 07:41:20;;;;;;;3.45;3.03;;;;;;;;;;4957359;28;20129;-77
2023/05/06 07:43:46;;;;;;;4.38;3.20;;;;;;;;;;4928520;28;20165;-77
2023/05/06 07:46:11;;;;;;;2.58;1.98;;;;;;;;;;4953352;28;20106;-77
2023/05/06 07:48:37;;;;;;;4.53;2.97;;;;;;;;;;4958089;28;20046;-77
2023/05/06 07:51:03;;;;;;;1.10;1.05;;;;;;;;;;4935615;28;20135;-77
2023/05/06 07:53:29;;;;;;;1.75;1.48;;;;;;;;;;4961528;28;20667;-77
2023/05/06 07:56:00;;;;;;;2.58;2.35;;;;;;;;;;4956898;28;20038;-77
2023/05/06 07:58:30;;;;;;;3.05;2.53;;;;;;;;;;4951875;28;20075;-78
2023/05/06 08:00:56;;;;;;;2.03;1.58;;;;;;;;;;4934284;28;20039;-77
2023/05/06 08:03:22;;;;;;;1.20;1.10;;;;;;;;;;4929869;28;20047;-78
2023/05/06 08:05:50;;;;;;;3.67;3.00;;;;;;;;;;4951463;28;20718;-77
2023/05/06 08:08:15;;;;;;;3.40;2.58;;;;;;;;;;4954462;28;20047;-78
2023/05/06 08:10:42;;;;;;;3.50;2.05;;;;;;;;;;4955667;28;20439;-77
2023/05/06 08:13:08;;;;;;;2.70;2.30;;;;;;;;;;4945810;28;20039;-78
2023/05/06 08:15:35;;;;;;;3.78;2.45;;;;;;;;;;4941557;28;20101;-77
2023/05/06 08:18:00;;;;;;;1.85;1.73;;;;;;;;;;4911833;28;20048;-77
2023/05/06 08:20:25;;;;;;;3.22;2.17;;;;;;;;;;4929148;28;20514;-78
2023/05/06 08:22:51;;;;;;;2.50;1.83;;;;;;;;;;4957661;28;20031;-77
2023/05/06 08:25:16;;;;;;;1.70;1.27;;;;;;;;;;4952923;28;20047;-78
2023/05/06 08:27:42;;;;;;;1.15;1.00;;;;;;;;;;4933722;28;20035;-77
2023/05/06 08:30:07;;;;;;;2.13;1.65;;;;;;;;;;4926100;28;20141;-77
2023/05/06 08:32:33;;;;;;;4.95;2.58;;;;;;;;;;4944955;28;20400;-77
2023/05/06 08:34:59;;;;;;;1.20;1.10;;;;;;;;;;4947413;28;20047;-77
2023/05/06 08:37:25;;;;;;;2.88;2.20;;;;;;;;;;4936691;28;20126;-78
2023/05/06 08:39:50;;;;;;;1.60;1.10;;;;;;;;;;4938266;28;20134;-77
2023/05/06 08:42:16;;;;;;;1.42;1.00;;;;;;;;;;4934752;28;20050;-77
2023/05/06 08:44:42;;;;;;;2.80;1.70;;;;;;;;;;4943043;28;20038;-77
2023/05/06 08:47:08;;;;;;;2.45;2.25;;;;;;;;;;4952690;28;20051;-77
2023/05/06 08:49:33;;;;;;;2.90;1.73;;;;;;;;;;4948001;28;20038;-77
2023/05/06 08:52:03;;;;;;;1.40;1.30;;;;;;;;;;4952209;28;20038;-77
2023/05/06 08:54:32;;;;;;;3.40;2.03;;;;;;;;;;4955356;28;20035;-77
2023/05/06 08:57:02;;;;;;;1.17;1.13;;;;;;;;;;4946045;28;20941;-77
2023/05/06 08:59:31;;;;;;;1.65;1.17;;;;;;;;;;4931810;28;20071;-77
2023/05/06 09:02:02;;;;;;;2.75;0.85;;;;;;;;;;4952751;28;20778;-78
2023/05/06 09:04:27;;;;;;;1.67;1.33;;;;;;;;;;4942799;28;20153;-78
2023/05/06 09:06:53;;;;;;;2.58;1.38;;;;;;;;;;4943440;28;20066;-77
2023/05/06 09:09:18;;;;;;;1.65;1.55;;;;;;;;;;4925178;28;20223;-77
2023/05/06 09:11:44;;;;;;;1.13;0.90;;;;;;;;;;4941786;28;20034;-76
2023/05/06 09:14:10;;;;;;;1.50;0.95;;;;;;;;;;4946350;28;20068;-77
2023/05/06 09:16:37;;;;;;;2.20;1.52;;;;;;;;;;4949640;28;20067;-77
2023/05/06 09:19:03;;;;;;;1.95;1.73;;;;;;;;;;4941625;28;20035;-77
2023/05/06 09:21:32;;;;;;;2.17;0.75;;;;;;;;;;4940698;28;20042;-77
2023/05/06 09:23:58;;;;;;;0.98;0.93;;;;;;;;;;4922325;28;20086;-77
2023/05/06 09:26:26;;;;;;;1.27;1.17;;;;;;;;;;4914995;28;20055;-77
2023/05/06 09:28:51;;;;;;;0.90;0.85;;;;;;;;;;4937215;28;20082;-78
2023/05/06 09:31:17;;;;;;;2.40;1.80;;;;;;;;;;4946394;28;20066;-77
2023/05/06 09:33:42;;;;;;;1.00;0.73;;;;;;;;;;4952889;28;20046;-77
2023/05/06 09:36:12;;;;;;;1.50;1.13;;;;;;;;;;4946991;28;20034;-77
2023/05/06 09:38:38;;;;;;;0.77;0.77;;;;;;;;;;4929019;28;20043;-77
2023/05/06 09:41:05;;;;;;;2.63;1.00;;;;;;;;;;4948786;28;20093;-77
2023/05/06 09:43:30;;;;;;;1.30;1.20;;;;;;;;;;4948877;28;20051;-77
2023/05/06 09:45:56;;;;;;;1.27;1.00;;;;;;;;;;4951600;28;20057;-77
2023/05/06 09:48:22;;;;;;;1.20;1.05;;;;;;;;;;4946460;28;20034;-77
2023/05/06 09:50:49;;;;;;;1.40;1.30;;;;;;;;;;4940807;28;20546;-77
2023/05/06 09:53:17;;;;;;;1.58;0.70;;;;;;;;;;4943414;28;20062;-77
2023/05/06 09:55:43;;;;;;;1.00;0.90;;;;;;;;;;4949581;28;20092;-77
2023/05/06 09:58:10;;;;;;;1.90;1.70;;;;;;;;;;4946370;28;20039;-77
2023/05/06 10:00:35;;;;;;;1.13;0.98;;;;;;;;;;4941751;28;20042;-77
2023/05/06 10:03:02;;;;;;;1.73;1.35;;;;;;;;;;4957070;28;20053;-77
2023/05/06 10:05:29;;;;;;;2.35;0.95;;;;;;;;;;4934596;28;20046;-77
2023/05/06 10:07:56;;;;;;;3.85;2.05;;;;;;;;;;4951356;28;20058;-78
2023/05/06 10:10:22;;;;;;;2.22;0.80;;;;;;;;;;4929017;28;20034;-77
2023/05/06 10:12:48;;;;;;;2.42;1.60;;;;;;;;;;4952020;28;20054;-77
2023/05/06 10:15:14;;;;;;;0.98;0.88;;;;;;;;;;4951630;28;20054;-77
2023/05/06 10:17:43;;;;;;;1.80;0.75;;;;;;;;;;4949391;28;20054;-77
2023/05/06 10:20:12;;;;;;;2.20;1.27;;;;;;;;;;4927685;28;20487;-77
2023/05/06 10:22:51;;;;;;;3.58;1.33;;;;;;;;;;4948974;28;20113;-77
2023/05/06 10:25:28;;;;;;;1.88;1.48;;;;;;;;;;4946291;28;20047;-78
2023/05/06 10:27:53;;;;;;;2.53;1.05;;;;;;;;;;4948892;28;20137;-78
2023/05/06 10:30:20;;;;;;;1.20;1.00;;;;;;;;;;4923572;28;20051;-77
2023/05/06 10:32:45;;;;;;;1.75;0.98;;;;;;;;;;4946642;28;20145;-78
2023/05/06 10:35:19;;;;;;;4.88;1.55;;;;;;;;;;4949099;28;20803;-77
2023/05/06 10:37:47;;;;;;;1.25;0.93;;;;;;;;;;4941448;28;20062;-78
2023/05/06 10:40:13;;;;;;;1.52;0.70;;;;;;;;;;4934876;28;20042;-77
2023/05/06 10:42:39;;;;;;;1.75;1.17;;;;;;;;;;4946489;28;20046;-77
2023/05/06 10:45:05;;;;;;;2.97;0.85;;;;;;;;;;4913616;28;20055;-78
2023/05/06 10:47:56;;;;;;;2.03;1.42;;;;;;;;;;4940518;28;20059;-77
2023/05/06 10:50:23;;;;;;;0.98;0.95;;;;;;;;;;4916273;28;20567;-78
2023/05/06 10:52:52;;;;;;;0.50;0.50;;;;;;;;;;4946240;28;20038;-77
2023/05/06 10:55:38;;;;;;;1.45;1.08;;;;;;;;;;4917360;28;20054;-78
2023/05/06 10:58:14;;;;;;;0.70;0.70;;;;;;;;;;4948801;28;20042;-75
2023/05/06 11:00:40;;;;;;;1.58;0.63;;;;;;;;;;4943518;28;20069;-77
2023/05/06 11:03:08;;;;;;;1.13;1.02;;;;;;;;;;4935202;28;20066;-77
2023/05/06 11:05:48;;;;;;;1.00;0.80;;;;;;;;;;4929805;28;20042;-78
2023/05/06 11:08:20;;;;;;;1.30;0.75;;;;;;;;;;4941059;28;20125;-78
2023/05/06 11:10:45;;;;;;;0.93;0.60;;;;;;;;;;4931211;28;20050;-78
2023/05/06 11:13:18;;;;;;;1.90;1.15;;;;;;;;;;4939017;28;20427;-78
2023/05/06 11:15:45;;;;;;;1.15;0.70;;;;;;;;;;4945346;28;20038;-78
2023/05/06 11:20:59;;;;;;;;;;;;;;;;;;4945651;28;20500;-78
2023/05/06 11:23:45;;;;;;;0.90;0.70;;;;;;;;;;4927399;28;19929;-78
2023/05/06 11:26:11;;;;;;;0.50;0.50;;;;;;;;;;4946734;28;21327;-77
2023/05/06 11:28:42;;;;;;;0.50;0.47;;;;;;;;;;4921117;28;20154;-78
2023/05/06 11:31:08;;;;;;;1.27;0.70;;;;;;;;;;4947888;28;20046;-78
2023/05/06 11:33:35;;;;;;;0.40;0.40;;;;;;;;;;4950688;28;20070;-78
2023/05/06 11:36:03;;;;;;;1.40;1.13;;;;;;;;;;4950435;28;20051;-78
2023/05/06 11:38:42;;;;;;;1.63;0.77;;;;;;;;;;4939609;28;20051;-79
2023/05/06 11:41:07;;;;;;;0.93;0.50;;;;;;;;;;4894690;28;20070;-78
2023/05/06 11:43:33;;;;;;;0.60;0.60;;;;;;;;;;4954339;28;20607;-79
2023/05/06 11:45:58;;;;;;;0.85;0.57;;;;;;;;;;4951217;28;20038;-79
2023/05/06 11:48:23;;;;;;;1.73;0.70;;;;;;;;;;4945881;28;20057;-79
2023/05/06 11:50:49;;;;;;;1.27;0.70;;;;;;;;;;4921890;28;20073;-79
2023/05/06 11:53:20;;;;;;;0.70;0.60;;;;;;;;;;4941400;28;20089;-78
2023/05/06 11:55:46;;;;;;;0.50;0.50;;;;;;;;;;4930589;28;20054;-79
2023/05/06 11:58:31;;;;;;;1.10;0.60;;;;;;;;;;4952624;28;20031;-79
2023/05/06 12:00:59;;;;;;;1.00;0.73;;;;;;;;;;4944920;28;20145;-78
2023/05/06 12:03:26;;;;;;;1.30;0.60;;;;;;;;;;4946197;28;20078;-79
2023/05/06 12:05:52;;;;;;;1.30;0.88;;;;;;;;;;4933057;28;20549;-78
2023/05/06 12:08:22;;;;;;;1.08;0.60;;;;;;;;;;4948059;28;20038;-79
2023/05/06 12:10:53;;;;;;;0.80;0.70;;;;;;;;;;4946002;28;20428;-78
2023/05/06 12:13:19;;;;;;;1.50;0.50;;;;;;;;;;4947019;28;21696;-78
2023/05/06 12:15:46;;;;;;;0.93;0.50;;;;;;;;;;4950755;28;20046;-78
2023/05/06 12:18:12;;;;;;;0.85;0.50;;;;;;;;;;4946278;28;20050;-78
2023/05/06 12:20:37;;;;;;;0.50;0.40;;;;;;;;;;4945982;28;20428;-78
2023/05/06 12:23:14;;;;;;;0.82;0.60;;;;;;;;;;4937137;28;20199;-79
2023/05/06 12:25:40;;;;;;;1.27;0.50;;;;;;;;;;4954926;28;20034;-78
2023/05/06 12:28:16;;;;;;;1.02;0.60;;;;;;;;;;4954353;28;20054;-78
2023/05/06 12:30:42;;;;;;;0.30;0.30;;;;;;;;;;4939119;28;20519;-79
2023/05/06 12:33:08;;;;;;;0.60;0.60;;;;;;;;;;4953851;28;20053;-78
2023/05/06 12:35:34;;;;;;;1.63;0.70;;;;;;;;;;4951475;28;20043;-78
2023/05/06 12:38:12;;;;;;;1.40;0.60;;;;;;;;;;4954101;28;20377;-78
2023/05/06 12:40:39;;;;;;;0.40;0.40;;;;;;;;;;4956685;28;20050;-78
2023/05/06 12:43:05;;;;;;;25.20;1.55;;;;;;;;;;4924613;28;20034;-77
2023/05/06 12:45:30;;;;;;;0.95;0.40;;;;;;;;;;4949393;28;20054;-78
2023/05/06 12:47:57;;;;;;;0.55;0.55;;;;;;;;;;4955042;28;20042;-78
2023/05/06 12:50:32;;;;;;;0.73;0.63;;;;;;;;;;4959657;28;20051;-79
2023/05/06 12:52:58;;;;;;;0.88;0.70;;;;;;;;;;4960686;28;20070;-78
2023/05/06 12:55:26;;;;;;;1.23;0.30;;;;;;;;;;4955663;28;20117;-79
2023/05/06 12:57:52;;;;;;;1.45;0.63;;;;;;;;;;4936539;28;20103;-78
2023/05/06 13:00:18;;;;;;;0.50;0.50;;;;;;;;;;4958030;28;20035;-79
2023/05/06 13:02:44;;;;;;;1.00;0.50;;;;;;;;;;4960804;28;20092;-79
2023/05/06 13:05:10;;;;;;;1.10;0.63;;;;;;;;;;4944474;28;20778;-78
2023/05/06 13:07:36;;;;;;;0.63;0.50;;;;;;;;;;4949630;28;20074;-78
2023/05/06 13:10:02;;;;;;;1.08;0.63;;;;;;;;;;4932909;28;20162;-78
2023/05/06 13:12:28;;;;;;;2.00;0.60;;;;;;;;;;4949373;28;20404;-78
2023/05/06 13:14:53;;;;;;;0.70;0.47;;;;;;;;;;4958123;28;20049;-78
2023/05/06 13:17:19;;;;;;;0.52;0.52;;;;;;;;;;4953653;28;20046;-78
2023/05/06 13:19:44;;;;;;;0.60;0.60;;;;;;;;;;4952295;28;20056;-78
2023/05/06 13:22:09;;;;;;;1.00;0.70;;;;;;;;;;4958526;28;20031;-78
2023/05/06 13:24:35;;;;;;;1.15;0.55;;;;;;;;;;4923983;28;20553;-78
2023/05/06 13:27:01;;;;;;;0.75;0.50;;;;;;;;;;4958755;28;20042;-78
2023/05/06 13:29:26;;;;;;;0.50;0.50;;;;;;;;;;4951697;28;20141;-79
2023/05/06 13:31:53;;;;;;;1.52;0.60;;;;;;;;;;4959244;28;20122;-78
2023/05/06 13:34:18;;;;;;;0.50;0.47;;;;;;;;;;4955892;28;20043;-79
2023/05/06 13:36:45;;;;;;;1.42;0.60;;;;;;;;;;4956410;28;20046;-78
2023/05/06 13:39:10;;;;;;;0.82;0.80;;;;;;;;;;4934072;28;20031;-77
2023/05/06 13:41:36;;;;;;;0.80;0.68;;;;;;;;;;4956408;28;20073;-79
2023/05/06 13:44:01;;;;;;;1.10;0.90;;;;;;;;;;4956998;28;20475;-79
2023/05/06 13:46:27;;;;;;;0.68;0.60;;;;;;;;;;4960963;28;20133;-79
2023/05/06 13:48:53;;;;;;;0.60;0.60;;;;;;;;;;4963391;28;20484;-78
2023/05/06 13:51:18;;;;;;;1.48;0.82;;;;;;;;;;4953945;28;21669;-78
2023/05/06 13:53:44;;;;;;;1.33;1.00;;;;;;;;;;4941538;28;20030;-79
2023/05/06 13:56:09;;;;;;;0.88;0.60;;;;;;;;;;4956211;28;20122;-78
2023/05/06 13:58:34;;;;;;;0.88;0.52;;;;;;;;;;4962148;28;20069;-78
2023/05/06 14:01:00;;;;;;;0.60;0.60;;;;;;;;;;4957237;28;20689;-79
2023/05/06 14:03:26;;;;;;;1.13;0.65;;;;;;;;;;4955192;28;20050;-78
2023/05/06 14:05:51;;;;;;;0.60;0.60;;;;;;;;;;4946400;28;20046;-78
2023/05/06 14:08:16;;;;;;;0.70;0.70;;;;;;;;;;4941938;28;20053;-78
2023/05/06 14:10:42;;;;;;;0.98;0.60;;;;;;;;;;4958920;28;20723;-78
2023/05/06 14:13:07;;;;;;;1.00;0.90;;;;;;;;;;4954287;28;20038;-79
2023/05/06 14:15:33;;;;;;;1.33;0.80;;;;;;;;;;4959994;28;20133;-78
2023/05/06 14:17:58;;;;;;;1.55;0.85;;;;;;;;;;4956950;28;20427;-78
2023/05/06 14:20:24;;;;;;;1.92;0.98;;;;;;;;;;4960228;28;20031;-77
2023/05/06 14:22:49;;;;;;;1.52;0.90;;;;;;;;;;4940006;28;20047;-79
2023/05/06 14:25:15;;;;;;;0.45;0.45;;;;;;;;;;4956157;28;20045;-78
2023/05/06 14:27:40;;;;;;;0.80;0.80;;;;;;;;;;4958039;28;20039;-79
2023/05/06 14:30:06;;;;;;;0.50;0.50;;;;;;;;;;4958857;28;20043;-78
2023/05/06 14:32:32;;;;;;;0.70;0.70;;;;;;;;;;4954840;28;20101;-78
2023/05/06 14:34:58;;;;;;;0.70;0.70;;;;;;;;;;4939031;28;20043;-78
2023/05/06 14:37:23;;;;;;;1.02;0.70;;;;;;;;;;4959184;28;20106;-78
2023/05/06 14:39:48;;;;;;;0.98;0.80;;;;;;;;;;4950878;28;20632;-78
2023/05/06 14:42:14;;;;;;;0.47;0.47;;;;;;;;;;4951628;28;20066;-78